Time;durP1;ratioP1;P1;durP2;ratioP2;P2;SDS_P1;SDS_P2;PMS_P1;PMS_P2;Temp;Humidity;BMP_temperature;BMP_pressure;BME280_temperature;BME280_humidity;BME280_pressure;Samples;Min_cycle;Max_cycle;Signal;HPM_P1;HPM_P2
2021/05/05 00:00:49;;;;;;;2.15;1.10;;;7.20;99.90;;;5.71;75.46;99798.06;3501832;39;103250;-40
2021/05/05 00:03:16;;;;;;;1.53;0.73;;;7.20;99.90;;;5.68;75.35;99795.78;3501234;40;102243;-40
2021/05/05 00:05:44;;;;;;;1.88;0.80;;;7.20;99.90;;;5.68;74.54;99803.91;3510093;40;103073;-40
2021/05/05 00:08:11;;;;;;;3.50;1.10;;;7.20;99.90;;;5.67;75.54;99808.47;3518114;40;102914;-40
2021/05/05 00:10:38;;;;;;;2.50;0.93;;;7.20;99.90;;;5.68;75.88;99802.03;3518140;40;102247;-40
2021/05/05 00:13:06;;;;;;;2.65;0.90;;;7.20;99.90;;;5.72;74.60;99803.31;3501959;40;103120;-40
2021/05/05 00:15:33;;;;;;;1.53;0.80;;;7.20;99.90;;;5.68;75.19;99798.50;3501699;40;102187;-40
2021/05/05 00:18:00;;;;;;;2.03;1.03;;;7.20;99.90;;;5.65;75.07;99805.13;3518151;39;103338;-40
2021/05/05 00:20:28;;;;;;;3.03;1.13;;;7.20;99.90;;;5.63;74.99;99806.41;3502095;40;103476;-40
2021/05/05 00:22:56;;;;;;;2.55;0.90;;;7.20;99.90;;;5.60;75.08;99803.06;3518186;40;102197;-40
2021/05/05 00:25:23;;;;;;;1.30;0.93;;;7.20;99.90;;;5.56;74.71;99793.66;3518091;40;102300;-40
2021/05/05 00:27:52;;;;;;;3.40;1.00;;;7.10;99.90;;;5.58;73.51;99798.88;3518225;40;103057;-40
2021/05/05 00:30:22;;;;;;;1.85;0.98;;;7.10;99.90;;;5.57;73.40;99798.06;3509857;40;103405;-40
2021/05/05 00:32:50;;;;;;;2.15;1.02;;;7.10;99.90;;;5.55;73.34;99797.41;3509932;40;104938;-40
2021/05/05 00:35:19;;;;;;;1.83;1.00;;;7.10;99.90;;;5.47;73.88;99792.19;3493354;40;102447;-40
2021/05/05 00:37:47;;;;;;;4.05;1.00;;;7.00;99.90;;;5.41;73.72;99803.84;3501620;40;102215;-40
2021/05/05 00:40:16;;;;;;;2.25;0.98;;;7.00;99.90;;;5.36;73.45;99800.91;3509672;40;104188;-40
2021/05/05 00:42:45;;;;;;;2.75;0.95;;;6.90;99.90;;;5.27;74.53;99803.78;3509704;40;104926;-40
2021/05/05 00:45:15;;;;;;;;;;;6.80;99.90;;;5.21;75.06;99793.78;3510136;40;103269;-40
2021/05/05 00:47:43;;;;;;;1.75;1.15;;;6.80;99.90;;;5.17;74.66;99795.22;3501674;40;102993;-40
2021/05/05 00:50:16;;;;;;;4.53;1.10;;;6.80;99.90;;;5.11;74.25;99804.16;3501701;40;102341;-40
2021/05/05 00:52:44;;;;;;;3.33;1.20;;;6.70;99.90;;;5.02;75.33;99806.19;3518129;40;102292;-40
2021/05/05 00:55:14;;;;;;;2.85;1.08;;;6.60;99.90;;;4.98;75.22;99805.75;3509901;40;102339;-40
2021/05/05 00:57:46;;;;;;;3.15;1.20;;;6.60;99.90;;;4.95;75.02;99802.63;3518143;40;102241;-40
2021/05/05 01:00:20;;;;;;;3.88;1.00;;;6.50;99.90;;;4.94;75.12;99798.25;3517906;40;102445;-40
2021/05/05 01:02:48;;;;;;;3.50;1.05;;;6.50;99.90;;;4.86;75.83;99801.94;3518573;40;103096;-40
2021/05/05 01:05:18;;;;;;;2.33;1.00;;;6.50;99.90;;;4.86;76.16;99804.66;3509738;40;102314;-40
2021/05/05 01:07:49;;;;;;;4.18;1.15;;;6.40;99.90;;;4.85;75.21;99803.81;3517817;40;102155;-40
2021/05/05 01:10:21;;;;;;;3.20;1.38;;;6.40;99.90;;;4.78;75.50;99804.84;3517715;40;102253;-40
2021/05/05 01:12:49;;;;;;;3.20;1.30;;;6.40;99.90;;;4.75;75.74;99808.75;3501558;40;103003;-40
2021/05/05 01:15:17;;;;;;;3.10;1.10;;;6.30;99.90;;;4.70;75.72;99809.34;3501574;40;102733;-40
2021/05/05 01:17:45;;;;;;;3.47;1.15;;;6.30;99.90;;;4.72;77.14;99804.56;3509466;40;102632;-40
2021/05/05 01:20:16;;;;;;;3.40;1.15;;;6.30;99.90;;;4.71;76.63;99802.09;3510129;40;102346;-40
2021/05/05 01:22:44;;;;;;;3.28;1.48;;;6.30;99.90;;;4.75;76.65;99798.75;3501329;40;104193;-40
2021/05/05 01:25:17;;;;;;;4.90;1.67;;;6.30;99.90;;;4.69;76.99;99786.06;3501113;40;102527;-40
2021/05/05 01:27:46;;;;;;;3.03;1.05;;;6.30;99.90;;;4.71;77.08;99797.50;3509595;40;102289;-40
2021/05/05 01:30:19;;;;;;;3.67;1.50;;;6.30;99.90;;;4.70;77.69;99801.22;3501381;40;103623;-40
2021/05/05 01:32:49;;;;;;;4.32;1.40;;;6.30;99.90;;;4.71;77.72;99794.78;3509745;40;102672;-40
2021/05/05 01:35:20;;;;;;;5.20;1.15;;;6.30;99.90;;;4.74;77.54;99801.69;3501046;40;102376;-40
2021/05/05 01:37:49;;;;;;;3.10;1.35;;;6.30;99.90;;;4.89;78.14;99790.75;3517656;40;103107;-40
2021/05/05 01:40:30;;;;;;;3.15;1.50;;;6.40;99.90;;;5.01;76.62;99789.13;3508992;40;102673;-40
2021/05/05 01:45:36;;;;;;;2.63;1.25;;;6.50;99.90;;;5.09;76.27;99790.81;3497880;40;105486;-40
2021/05/05 01:48:10;;;;;;;3.53;1.65;;;6.60;99.90;;;5.17;77.35;99784.41;3488436;40;103214;-40
2021/05/05 01:50:39;;;;;;;4.25;1.70;;;6.60;99.90;;;5.20;75.30;99786.72;3496794;40;102803;-40
2021/05/05 01:53:08;;;;;;;5.25;1.90;;;6.70;99.90;;;5.21;75.27;99780.25;3496574;40;103133;-40
2021/05/05 01:55:38;;;;;;;5.25;1.90;;;6.70;99.90;;;5.16;75.53;99770.03;3488696;40;102751;-40
2021/05/05 01:58:10;;;;;;;3.65;1.65;;;6.70;99.90;;;5.08;75.05;99769.41;3488759;40;105610;-40
2021/05/05 02:00:39;;;;;;;5.00;1.58;;;6.70;99.90;;;4.99;75.39;99772.28;3488799;40;102333;-40
2021/05/05 02:03:10;;;;;;;2.95;1.52;;;6.60;99.90;;;4.89;75.45;99769.13;3488874;40;104040;-40
2021/05/05 02:05:47;;;;;;;4.97;1.65;;;6.50;99.90;;;4.82;75.61;99777.19;3489034;40;102396;-40
2021/05/05 02:08:24;;;;;;;3.25;1.75;;;6.40;99.90;;;4.71;76.18;99777.75;3496438;40;102307;-40
2021/05/05 02:10:52;;;;;;;3.28;2.03;;;6.30;99.90;;;4.71;76.09;99778.59;3488749;40;103402;-40
2021/05/05 02:13:21;;;;;;;3.75;1.70;;;6.30;99.90;;;4.65;76.46;99784.78;3488197;40;103142;-39
2021/05/05 02:15:51;;;;;;;3.70;1.60;;;6.20;99.90;;;4.55;77.40;99784.31;3496506;40;102388;-40
2021/05/05 02:18:23;;;;;;;2.97;1.50;;;6.20;99.90;;;4.51;76.77;99785.72;3488275;40;102232;-40
2021/05/05 02:20:52;;;;;;;3.25;1.67;;;6.10;99.90;;;4.41;76.91;99786.91;3489357;40;102256;-40
2021/05/05 02:23:20;;;;;;;3.80;1.65;;;6.10;99.90;;;4.40;77.52;99785.25;3487948;40;103088;-39
2021/05/05 02:25:50;;;;;;;2.40;1.30;;;6.00;99.90;;;4.34;77.50;99796.00;3489787;40;102213;-40
2021/05/05 02:28:17;;;;;;;4.43;1.67;;;6.00;99.90;;;4.27;78.62;99794.09;3497963;40;104996;-41
2021/05/05 02:30:55;;;;;;;2.97;1.63;;;5.90;99.90;;;4.19;78.99;99794.25;3497048;40;102339;-40
2021/05/05 02:33:25;;;;;;;3.13;1.85;;;5.80;99.90;;;4.20;78.76;99792.38;3481523;40;103360;-39
2021/05/05 02:35:54;;;;;;;4.20;1.55;;;5.80;99.90;;;4.11;79.41;99794.38;3489904;40;102367;-40
2021/05/05 02:38:22;;;;;;;4.57;1.95;;;5.80;99.90;;;4.07;79.71;99790.41;3481620;40;103083;-40
2021/05/05 02:40:50;;;;;;;7.72;1.80;;;5.70;99.90;;;4.07;79.91;99795.78;3489126;40;103532;-40
2021/05/05 02:43:20;;;;;;;3.65;1.88;;;5.70;99.90;;;4.03;79.78;99798.06;3490015;40;102815;-40
2021/05/05 02:45:49;;;;;;;3.20;2.08;;;5.60;99.90;;;3.93;80.38;99794.84;3491880;40;102178;-40
2021/05/05 02:48:17;;;;;;;3.05;1.75;;;5.60;99.90;;;3.92;81.17;99799.44;3483455;40;103126;-40
2021/05/05 02:50:45;;;;;;;3.70;2.00;;;5.60;99.90;;;3.92;80.75;99798.56;3491628;40;102315;-40
2021/05/05 02:53:13;;;;;;;4.95;2.22;;;5.60;99.90;;;3.93;81.06;99793.00;3507382;40;103178;-40
2021/05/05 02:55:40;;;;;;;3.65;2.00;;;5.50;99.90;;;3.91;80.88;99807.72;3491331;40;102265;-40
2021/05/05 02:58:08;;;;;;;4.65;2.50;;;5.60;99.90;;;3.89;81.15;99807.91;3491123;40;102266;-40
2021/05/05 03:00:36;;;;;;;5.95;2.30;;;5.50;99.90;;;3.89;81.59;99797.13;3490997;40;102135;-40
2021/05/05 03:03:03;;;;;;;3.83;2.30;;;5.50;99.90;;;3.86;81.24;99792.94;3491234;40;102327;-40
2021/05/05 03:05:31;;;;;;;5.38;2.22;;;5.50;99.90;;;3.95;81.20;99807.13;3499284;40;102429;-40
2021/05/05 03:07:58;;;;;;;4.40;2.30;;;5.50;99.90;;;3.95;81.81;99796.34;3490766;40;102295;-40
2021/05/05 03:10:25;;;;;;;4.95;2.55;;;5.50;99.90;;;3.87;81.11;99802.69;3475059;40;105033;-40
2021/05/05 03:12:53;;;;;;;10.02;2.70;;;5.50;99.90;;;3.91;81.87;99805.00;3499501;40;104799;-41
2021/05/05 03:15:20;;;;;;;5.13;2.57;;;5.50;99.90;;;4.00;81.63;99793.06;3491048;40;102355;-40
2021/05/05 03:17:53;;;;;;;5.45;2.50;;;5.50;99.90;;;3.95;80.72;99808.97;3499647;40;103095;-40
2021/05/05 03:20:20;;;;;;;5.25;2.40;;;5.60;99.90;;;3.95;81.56;99800.88;3499179;40;104090;-40
2021/05/05 03:22:48;;;;;;;5.67;2.27;;;5.60;99.90;;;3.98;81.29;99800.53;3491337;40;103129;-40
2021/05/05 03:25:15;;;;;;;4.78;2.90;;;5.60;99.90;;;4.01;81.56;99792.84;3490814;40;102347;-40
2021/05/05 03:27:43;;;;;;;5.53;2.50;;;5.60;99.90;;;3.98;81.17;99789.72;3499563;40;102378;-40
2021/05/05 03:30:11;;;;;;;4.43;2.33;;;5.60;99.90;;;4.03;81.40;99808.88;3483168;40;103970;-40
2021/05/05 03:32:38;;;;;;;;;;;5.60;99.90;;;3.97;81.23;99801.53;3507722;40;102130;-40
2021/05/05 03:35:08;;;;;;;6.45;2.78;;;5.60;99.90;;;4.02;81.38;99807.19;3499467;40;102183;-40
2021/05/05 03:37:37;;;;;;;5.75;2.78;;;5.60;99.90;;;3.99;81.34;99803.00;3490431;40;102236;-40
2021/05/05 03:40:07;;;;;;;5.95;2.67;;;5.60;99.90;;;3.97;81.53;99801.53;3506554;40;104330;-40
2021/05/05 03:42:35;;;;;;;5.20;2.72;;;5.60;99.90;;;4.06;82.19;99808.47;3506657;40;103943;-41
2021/05/05 03:45:06;;;;;;;7.38;2.95;;;5.60;99.90;;;4.03;82.81;99806.16;3498847;40;103467;-40
2021/05/05 03:47:34;;;;;;;5.10;2.85;;;5.60;99.90;;;4.09;82.45;99801.84;3499034;40;103271;-40
2021/05/05 03:50:01;;;;;;;9.20;3.28;;;5.60;99.90;;;4.11;82.35;99800.63;3498761;40;104035;-40
2021/05/05 03:52:28;;;;;;;5.10;2.90;;;5.70;99.90;;;4.13;82.04;99806.66;3499207;40;105032;-40
2021/05/05 03:54:55;;;;;;;5.47;3.00;;;5.70;99.90;;;4.17;82.17;99805.22;3490644;40;102408;-40
2021/05/05 03:57:23;;;;;;;6.43;2.70;;;5.70;99.90;;;4.27;81.22;99804.91;3498727;40;103978;-40
2021/05/05 03:59:51;;;;;;;5.72;2.78;;;5.80;99.90;;;4.29;81.83;99810.13;3482740;40;104894;-41
2021/05/05 04:02:18;;;;;;;5.30;3.00;;;5.80;99.90;;;4.30;81.88;99812.59;3499349;40;104883;-40
2021/05/05 04:04:46;;;;;;;4.20;2.50;;;5.90;99.90;;;4.36;81.57;99808.28;3490546;40;104954;-40
2021/05/05 04:07:13;;;;;;;6.90;2.77;;;5.90;99.90;;;4.39;81.03;99813.28;3491022;40;103981;-40
2021/05/05 04:09:42;;;;;;;6.47;3.10;;;5.90;99.90;;;4.43;81.24;99819.16;3491058;40;103195;-40
2021/05/05 04:12:11;;;;;;;6.28;2.83;;;6.00;99.90;;;4.41;80.25;99818.50;3499319;40;103262;-40
2021/05/05 04:14:39;;;;;;;4.93;2.92;;;6.00;99.90;;;4.47;80.93;99815.03;3490453;40;102816;-40
2021/05/05 04:17:15;;;;;;;7.60;3.15;;;6.00;99.90;;;4.48;81.00;99822.09;3506323;40;105447;-40
2021/05/05 04:19:56;;;;;;;4.93;3.00;;;6.00;99.90;;;4.50;80.72;99824.56;3506487;40;102308;-41
2021/05/05 04:22:32;;;;;;;5.55;2.97;;;6.00;99.90;;;4.50;81.13;99824.56;3506560;40;103075;-41
2021/05/05 04:25:10;;;;;;;8.48;3.55;;;6.00;99.90;;;4.54;79.97;99825.88;3505947;40;102890;-40
2021/05/05 04:27:38;;;;;;;7.93;3.30;;;6.10;99.90;;;4.61;80.05;99826.75;3500165;40;102401;-40
2021/05/05 04:30:07;;;;;;;4.88;3.30;;;6.10;99.90;;;4.61;79.84;99832.16;3499007;40;103650;-40
2021/05/05 04:32:34;;;;;;;8.43;3.42;;;6.20;99.90;;;4.67;80.06;99831.34;3500063;40;102406;-40
2021/05/05 04:35:03;;;;;;;6.93;3.22;;;6.20;99.90;;;4.65;80.12;99836.13;3506997;40;102493;-40
2021/05/05 04:37:30;;;;;;;9.50;3.67;;;6.20;99.90;;;4.70;79.78;99830.97;3498818;40;102246;-40
2021/05/05 04:39:57;;;;;;;9.48;3.05;;;6.20;99.90;;;4.67;80.24;99839.47;3506714;40;102437;-43
2021/05/05 04:42:24;;;;;;;6.28;3.30;;;6.20;99.90;;;4.69;79.69;99842.81;3506848;40;103063;-40
2021/05/05 04:44:52;;;;;;;7.93;3.77;;;6.20;99.90;;;4.70;79.69;99838.25;3498590;40;102461;-40
2021/05/05 04:47:19;;;;;;;9.80;4.40;;;6.30;99.90;;;4.75;79.90;99844.69;3498713;40;103122;-41
2021/05/05 04:49:47;;;;;;;8.13;3.70;;;6.30;99.90;;;4.75;79.83;99849.28;3498689;40;102823;-40
2021/05/05 04:52:14;;;;;;;6.28;3.85;;;6.30;99.90;;;4.77;79.59;99852.63;3499046;40;102403;-40
2021/05/05 04:54:41;;;;;;;6.65;3.83;;;6.30;99.90;;;4.84;79.54;99863.50;3506740;40;102466;-41
2021/05/05 04:57:08;;;;;;;7.85;3.83;;;6.30;99.90;;;4.85;78.89;99862.44;3490721;40;104842;-40
2021/05/05 04:59:35;;;;;;;6.47;4.00;;;6.40;99.90;;;4.82;80.18;99857.44;3490749;40;103915;-40
2021/05/05 05:02:03;;;;;;;6.75;4.07;;;6.40;99.90;;;4.87;81.73;99868.50;3482399;40;104685;-40
2021/05/05 05:04:30;;;;;;;6.60;4.13;;;6.40;99.90;;;4.79;82.58;99866.78;3490693;40;103367;-40
2021/05/05 05:06:57;;;;;;;9.73;4.70;;;6.30;99.90;;;4.69;82.36;99880.63;3498798;40;104001;-40
2021/05/05 05:09:24;;;;;;;8.38;4.28;;;6.30;99.90;;;4.65;83.42;99886.66;3506564;40;104218;-40
2021/05/05 05:11:51;;;;;;;8.05;4.85;;;6.20;99.90;;;4.62;84.48;99898.66;3490859;40;103052;-40
2021/05/05 05:14:18;;;;;;;9.18;4.32;;;6.20;99.90;;;4.56;83.97;99883.25;3506547;40;103356;-41
2021/05/05 05:16:45;;;;;;;9.05;4.68;;;6.10;99.90;;;4.58;85.85;99894.69;3498798;40;103087;-40
2021/05/05 05:19:12;;;;;;;8.38;4.57;;;6.10;99.90;;;4.53;85.22;99894.44;3498942;40;103156;-40
2021/05/05 05:21:39;;;;;;;7.75;4.35;;;6.10;99.90;;;4.52;85.18;99900.88;3498662;40;102105;-40
2021/05/05 05:24:08;;;;;;;7.50;4.18;;;6.10;99.90;;;4.51;86.04;99899.19;3498507;40;103139;-40
2021/05/05 05:26:35;;;;;;;9.30;4.43;;;6.10;99.90;;;4.50;86.32;99902.91;3506891;40;105605;-40
2021/05/05 05:29:02;;;;;;;7.00;4.37;;;6.10;99.90;;;4.45;86.17;99896.25;3507317;40;102281;-40
2021/05/05 05:31:29;;;;;;;7.77;5.13;;;6.00;99.90;;;4.47;86.27;99898.75;3498555;40;102406;-40
2021/05/05 05:33:57;;;;;;;8.80;5.07;;;6.00;99.90;;;4.52;86.11;99903.59;3499284;40;102584;-40
2021/05/05 05:36:24;;;;;;;9.57;5.00;;;6.00;99.90;;;4.61;85.74;99891.59;3498780;40;103058;-40
2021/05/05 05:38:51;;;;;;;8.00;4.60;;;6.10;99.90;;;4.63;84.57;99904.88;3490280;40;103567;-41
2021/05/05 05:41:18;;;;;;;9.20;5.00;;;6.10;99.90;;;4.68;85.06;99908.69;3497600;40;104872;-40
2021/05/05 05:43:45;;;;;;;11.35;4.68;;;6.20;99.90;;;4.75;85.22;99898.75;3498767;40;102341;-40
2021/05/05 05:46:12;;;;;;;7.73;4.10;;;6.20;99.90;;;4.81;84.97;99890.91;3498567;40;102403;-40
2021/05/05 05:48:39;;;;;;;9.60;4.63;;;6.30;99.90;;;4.90;84.95;99890.53;3506326;40;102291;-40
2021/05/05 05:51:07;;;;;;;8.30;4.70;;;6.30;99.90;;;4.95;84.29;99895.34;3490124;40;103254;-40
2021/05/05 05:53:34;;;;;;;8.02;4.53;;;6.40;99.90;;;5.00;84.14;99890.19;3506405;40;102077;-40
2021/05/05 05:56:06;;;;;;;7.55;3.80;;;6.50;99.90;;;5.03;83.66;99886.25;3506130;40;102217;-40
2021/05/05 05:58:33;;;;;;;7.53;4.00;;;6.50;99.90;;;5.14;84.03;99895.69;3498237;40;102473;-40
2021/05/05 06:01:00;;;;;;;10.35;3.92;;;6.60;99.90;;;5.20;81.26;99897.59;3507607;40;103051;-40
2021/05/05 06:03:27;;;;;;;7.32;3.92;;;6.60;99.90;;;5.22;81.92;99906.34;3499748;40;102595;-41
2021/05/05 06:05:55;;;;;;;7.25;3.67;;;6.70;99.90;;;5.23;82.17;99916.09;3500922;40;102233;-40
2021/05/05 06:08:22;;;;;;;8.05;4.10;;;6.70;99.90;;;5.19;82.87;99917.56;3507902;40;103408;-39
2021/05/05 06:10:49;;;;;;;8.32;3.83;;;6.70;99.90;;;5.17;83.62;99919.63;3500074;40;102573;-41
2021/05/05 06:13:17;;;;;;;7.20;3.65;;;6.70;99.90;;;5.15;84.31;99916.28;3499077;40;102503;-39
2021/05/05 06:15:44;;;;;;;7.28;3.13;;;6.60;99.90;;;4.99;83.23;99915.56;3499486;40;103103;-40
2021/05/05 06:18:12;;;;;;;5.18;2.67;;;6.60;99.90;;;4.90;83.23;99909.47;3507481;40;102450;-40
2021/05/05 06:20:39;;;;;;;5.85;2.70;;;6.50;99.90;;;4.84;83.61;99915.66;3499147;40;102245;-40
2021/05/05 06:23:06;;;;;;;5.15;3.00;;;6.40;99.90;;;4.75;83.33;99909.56;3499545;40;102365;-40
2021/05/05 06:25:33;;;;;;;6.32;3.67;;;6.30;99.90;;;4.72;83.25;99915.38;3500715;40;104031;-40
2021/05/05 06:28:00;;;;;;;6.63;4.10;;;6.30;99.90;;;4.71;84.46;99905.59;3500613;40;103410;-40
2021/05/05 06:30:28;;;;;;;9.57;5.00;;;6.30;99.90;;;4.78;85.47;99902.13;3499876;40;102091;-39
2021/05/05 06:32:55;;;;;;;7.80;4.50;;;6.30;99.90;;;4.84;84.74;99912.13;3499569;40;102413;-39
2021/05/05 06:35:22;;;;;;;7.20;4.27;;;6.30;99.90;;;4.87;84.81;99906.34;3499200;40;104766;-40
2021/05/05 06:37:49;;;;;;;11.33;5.10;;;6.40;99.90;;;4.96;85.32;99913.25;3507433;40;105045;-40
2021/05/05 06:40:17;;;;;;;10.43;4.55;;;6.40;99.90;;;4.96;84.17;99924.06;3507227;40;103155;-40
2021/05/05 06:42:46;;;;;;;9.20;4.25;;;6.50;99.90;;;4.96;84.94;99939.47;3499311;40;103259;-40
2021/05/05 06:45:14;;;;;;;9.02;4.50;;;6.50;99.90;;;4.96;83.57;99947.56;3500173;40;103999;-40
2021/05/05 06:47:41;;;;;;;7.55;4.28;;;6.50;99.90;;;5.00;84.82;99952.38;3500371;40;102459;-40
2021/05/05 06:50:11;;;;;;;7.18;3.97;;;6.50;99.90;;;4.99;84.53;99958.81;3499440;40;104330;-40
2021/05/05 06:52:38;;;;;;;6.43;3.53;;;6.50;99.90;;;4.96;83.17;99959.19;3500412;40;103161;-39
2021/05/05 06:55:07;;;;;;;5.22;3.65;;;6.50;99.90;;;4.90;83.82;99965.41;3499199;40;103513;-40
2021/05/05 06:57:35;;;;;;;5.38;3.47;;;6.50;99.90;;;4.89;83.59;99964.56;3500377;40;102373;-41
2021/05/05 07:00:07;;;;;;;5.80;3.15;;;6.50;99.90;;;4.93;84.47;99970.41;3499239;40;105057;-40
2021/05/05 07:02:34;;;;;;;5.32;3.55;;;6.40;99.90;;;4.86;84.04;99969.53;3500401;40;103335;-40
2021/05/05 07:05:02;;;;;;;8.88;3.65;;;6.40;99.90;;;4.85;84.91;99975.97;3498841;40;102213;-39
2021/05/05 07:07:30;;;;;;;;;;;6.40;99.90;;;4.85;85.16;99981.38;3500219;40;103123;-40
2021/05/05 07:09:57;;;;;;;8.02;3.95;;;6.40;99.90;;;4.84;85.66;99977.81;3499511;40;104200;-40
2021/05/05 07:12:24;;;;;;;6.15;3.20;;;6.40;99.90;;;4.82;86.16;99985.28;3499983;40;102682;-40
2021/05/05 07:14:51;;;;;;;7.53;3.40;;;6.30;99.90;;;4.86;86.14;99983.06;3507096;40;102363;-40
2021/05/05 07:17:19;;;;;;;6.07;3.30;;;6.40;99.90;;;4.87;86.18;99977.44;3507594;40;103417;-40
2021/05/05 07:19:49;;;;;;;5.30;3.30;;;6.30;99.90;;;4.90;86.07;99974.34;3507647;40;103294;-40
2021/05/05 07:22:18;;;;;;;6.53;3.63;;;6.40;99.90;;;5.00;87.12;99979.41;3499467;40;102308;-40
2021/05/05 07:24:45;;;;;;;;;;;6.50;99.90;;;5.01;86.15;99988.38;3507885;40;102158;-40
2021/05/05 07:27:13;;;;;;;6.13;3.85;;;6.50;99.90;;;5.02;85.42;99981.91;3499833;40;102799;-40
2021/05/05 07:29:42;;;;;;;7.50;4.10;;;6.50;99.90;;;4.99;84.86;99980.44;3499042;40;103234;-42
2021/05/05 07:32:09;;;;;;;6.43;4.28;;;6.50;99.90;;;4.99;85.19;99988.53;3507641;40;102406;-39
2021/05/05 07:34:39;;;;;;;6.53;3.95;;;6.50;99.90;;;4.98;84.85;99994.97;3500163;40;102193;-40
2021/05/05 07:37:12;;;;;;;8.15;4.13;;;6.50;99.90;;;5.12;85.41;100005.91;3499456;40;103390;-40
2021/05/05 07:39:58;;;;;;;5.40;3.17;;;6.60;99.90;;;5.03;83.77;100007.94;3499757;40;102244;-40
2021/05/05 07:47:50;;;;;;;1.67;1.00;;;6.60;99.90;;;5.06;80.73;100007.53;3525354;39;102375;-40
2021/05/05 07:50:17;;;;;;;2.00;1.10;;;6.50;99.90;;;5.12;81.82;100017.56;3529640;39;102194;-40
2021/05/05 07:52:44;;;;;;;3.17;1.25;;;6.60;99.90;;;5.16;81.14;100023.41;3520391;39;102522;-40
2021/05/05 07:55:12;;;;;;;3.08;1.15;;;6.60;99.90;;;5.23;81.43;100029.69;3519391;39;104095;-39
2021/05/05 07:57:42;;;;;;;3.55;1.40;;;6.70;99.90;;;5.16;82.25;100032.34;3536923;39;102349;-39
2021/05/05 08:00:12;;;;;;;2.40;1.45;;;6.70;99.90;;;4.95;82.11;100043.22;3529465;39;103225;-39
2021/05/05 08:02:40;;;;;;;2.83;1.33;;;6.60;99.90;;;4.84;82.65;100052.69;3529291;39;102425;-39
2021/05/05 08:05:11;;;;;;;1.95;1.20;;;6.40;99.90;;;4.81;83.76;100059.31;3529105;39;102523;-39
2021/05/05 08:07:38;;;;;;;1.60;1.00;;;6.40;99.90;;;4.71;83.08;100048.81;3536059;39;102120;-39
2021/05/05 08:10:08;;;;;;;2.35;1.25;;;6.30;99.90;;;4.76;83.89;100050.94;3527850;39;103582;-39
2021/05/05 08:12:36;;;;;;;2.70;1.40;;;6.30;99.90;;;4.88;84.53;100059.38;3528060;39;102143;-39
2021/05/05 08:15:04;;;;;;;2.38;1.40;;;6.30;99.90;;;5.01;84.90;100064.06;3528503;39;102174;-40
2021/05/05 08:17:32;;;;;;;4.40;1.52;;;6.40;99.90;;;5.03;84.52;100059.28;3527766;39;102378;-40
2021/05/05 08:19:59;;;;;;;3.08;1.70;;;6.50;99.90;;;5.11;84.92;100058.31;3527925;39;102348;-40
2021/05/05 08:22:26;;;;;;;3.35;1.50;;;6.60;99.90;;;5.15;85.49;100057.72;3527340;39;102372;-40
2021/05/05 08:24:53;;;;;;;4.05;1.90;;;6.60;99.90;;;5.23;85.25;100055.94;3527721;39;103166;-40
2021/05/05 08:27:22;;;;;;;3.43;1.80;;;6.70;99.90;;;5.36;84.64;100052.50;3528117;39;102426;-39
2021/05/05 08:29:52;;;;;;;4.20;1.95;;;6.70;99.90;;;5.65;85.06;100064.94;3529292;39;103085;-39
2021/05/05 08:32:21;;;;;;;3.63;2.10;;;6.90;99.90;;;5.98;85.74;100048.06;3528136;39;103225;-40
2021/05/05 08:34:49;;;;;;;4.28;2.17;;;7.20;99.90;;;6.11;83.66;100050.03;3527616;39;103368;-40
2021/05/05 08:37:18;;;;;;;3.70;2.25;;;7.40;99.90;;;6.38;84.28;100052.84;3527596;39;102682;-40
2021/05/05 08:39:45;;;;;;;5.28;2.35;;;7.60;99.90;;;6.49;81.93;100043.25;3528449;39;103235;-40
2021/05/05 08:42:15;;;;;;;4.85;2.35;;;7.80;99.90;;;6.78;80.87;100059.38;3528074;39;103386;-40
2021/05/05 08:44:48;;;;;;;3.70;2.30;;;8.00;99.90;;;7.02;78.37;100061.50;3527829;39;104742;-40
2021/05/05 08:47:17;;;;;;;4.05;2.30;;;8.30;99.90;;;7.28;79.53;100059.81;3528997;39;102882;-40
2021/05/05 08:49:47;;;;;;;4.50;2.25;;;8.50;99.90;;;7.43;78.96;100050.66;3528952;39;104266;-40
2021/05/05 08:52:14;;;;;;;;;;;8.60;99.90;;;7.55;78.91;100057.09;3529161;39;102421;-40
2021/05/05 08:54:41;;;;;;;3.47;2.08;;;8.80;99.90;;;7.71;78.16;100065.84;3519584;39;102774;-40
2021/05/05 08:57:09;;;;;;;4.93;2.50;;;9.00;99.90;;;7.60;75.72;100070.84;3527809;39;102435;-40
2021/05/05 08:59:38;;;;;;;4.55;2.25;;;8.90;99.90;;;7.75;74.30;100070.63;3519629;39;102944;-40
2021/05/05 09:02:05;;;;;;;4.60;1.92;;;9.00;99.90;;;8.13;71.23;100074.47;3527755;39;103182;-40
2021/05/05 09:04:32;;;;;;;4.57;1.88;;;9.30;99.90;;;8.26;70.30;100067.34;3519365;39;105120;-40
2021/05/05 09:07:01;;;;;;;6.53;2.05;;;9.50;99.90;;;8.24;70.15;100066.72;3519716;39;103214;-40
2021/05/05 09:09:45;;;;;;;5.28;2.00;;;9.50;99.90;;;8.16;69.43;100079.47;3529560;39;103513;-40
2021/05/05 09:12:25;;;;;;;4.22;1.90;;;9.50;99.90;;;8.10;69.31;100072.19;3529005;39;102397;-40
2021/05/05 09:15:04;;;;;;;5.47;1.90;;;9.50;99.90;;;7.94;68.51;100076.22;3527384;39;102767;-40
2021/05/05 09:17:35;;;;;;;;;;;9.40;99.90;;;7.82;68.89;100091.47;3529453;39;102748;-40
2021/05/05 09:20:05;;;;;;;6.40;2.10;;;9.30;99.90;;;8.16;69.35;100093.06;3528687;39;104077;-40
2021/05/05 09:22:53;;;;;;;7.07;2.10;;;9.40;99.90;;;8.72;67.37;100093.47;3527850;39;103766;-40
2021/05/05 09:25:30;;;;;;;3.50;1.95;;;9.70;99.90;;;8.73;63.74;100100.56;3527202;39;104880;-40
2021/05/05 09:28:11;;;;;;;5.47;2.35;;;10.00;99.90;;;8.63;64.58;100100.22;3528719;39;102347;-40
2021/05/05 09:30:43;;;;;;;7.20;2.58;;;10.00;99.90;;;8.53;64.53;100095.25;3528520;39;102296;-40
2021/05/05 09:33:34;;;;;;;4.75;2.30;;;9.90;99.90;;;8.38;64.58;100090.06;3528575;39;102391;-40
2021/05/05 09:36:06;;;;;;;6.82;3.05;;;9.80;99.90;;;8.20;64.45;100110.59;3528713;39;103993;-40
2021/05/05 09:38:46;;;;;;;7.55;2.60;;;9.70;99.90;;;8.01;65.56;100116.94;3527434;39;102443;-40
2021/05/05 09:41:26;;;;;;;6.85;2.42;;;9.50;99.90;;;8.07;66.89;100121.53;3528256;39;104004;-40
2021/05/05 09:44:03;;;;;;;5.40;2.85;;;9.50;99.90;;;8.24;67.91;100116.44;3528931;39;103642;-41
2021/05/05 09:46:46;;;;;;;6.65;2.83;;;9.50;99.90;;;8.40;63.88;100117.84;3529042;39;102418;-40
2021/05/05 09:49:25;;;;;;;7.68;2.67;;;9.70;99.90;;;8.54;62.08;100134.16;3528586;39;102370;-40
2021/05/05 09:52:00;;;;;;;6.65;2.50;;;9.80;99.90;;;9.04;63.50;100123.41;3519329;39;105881;-40
2021/05/05 09:54:41;;;;;;;6.85;2.92;;;10.10;99.90;;;9.15;61.29;100131.94;3528320;39;103139;-41
2021/05/05 09:57:21;;;;;;;6.25;2.58;;;10.30;99.90;;;9.12;62.56;100130.47;3528650;39;104919;-40
2021/05/05 10:00:03;;;;;;;7.65;2.90;;;10.40;99.90;;;8.69;65.22;100128.44;3528607;39;102301;-40
2021/05/05 10:02:51;;;;;;;6.10;2.35;;;10.20;99.90;;;8.41;65.25;100129.56;3528437;39;103940;-40
2021/05/05 10:05:23;;;;;;;6.45;2.75;;;10.00;99.90;;;8.24;65.85;100140.91;3527033;39;102294;-40
2021/05/05 10:07:56;;;;;;;6.05;2.42;;;9.80;99.90;;;8.17;66.95;100151.78;3528274;39;104064;-40
2021/05/05 10:10:29;;;;;;;7.05;2.60;;;9.60;99.90;;;7.93;65.75;100150.59;3528040;39;102351;-40
2021/05/05 10:13:04;;;;;;;3.40;1.40;;;9.50;99.90;;;7.59;67.02;100202.22;3528283;39;103160;-41
2021/05/05 10:15:37;;;;;;;3.00;0.95;;;9.20;99.90;;;7.16;68.53;100203.41;3526604;39;102402;-40
2021/05/05 10:18:11;;;;;;;1.88;0.85;;;8.80;99.90;;;6.68;70.60;100204.31;3528514;39;104248;-39
2021/05/05 10:20:43;;;;;;;2.33;0.90;;;8.40;99.90;;;6.31;73.96;100196.41;3527527;39;104980;-39
2021/05/05 10:23:14;;;;;;;2.38;0.98;;;8.10;99.90;;;6.23;75.49;100199.25;3528863;39;102150;-39
2021/05/05 10:25:43;;;;;;;2.30;1.00;;;7.80;99.90;;;6.51;79.45;100198.38;3527354;39;103832;-40
2021/05/05 10:28:11;;;;;;;2.20;0.98;;;7.90;99.90;;;6.74;78.46;100189.06;3535043;39;102480;-40
2021/05/05 10:30:43;;;;;;;3.95;1.48;;;8.00;99.90;;;7.10;79.28;100189.81;3519115;39;102436;-40
2021/05/05 10:33:25;;;;;;;3.35;1.50;;;8.30;99.90;;;7.48;80.28;100192.81;3527969;39;102372;-40
2021/05/05 10:35:52;;;;;;;6.63;2.17;;;8.60;99.90;;;7.68;77.05;100196.56;3528429;39;103278;-40
2021/05/05 10:38:38;;;;;;;4.18;1.85;;;8.80;99.90;;;7.84;75.58;100196.16;3528564;39;103061;-40
2021/05/05 10:41:10;;;;;;;4.53;2.10;;;9.00;99.90;;;8.05;76.83;100191.53;3527480;39;102271;-40
2021/05/05 10:43:49;;;;;;;6.65;2.30;;;9.20;99.90;;;8.23;76.71;100181.91;3527552;39;102561;-40